sensor_id;sensor_type;location;lat;lon;timestamp;temperature;humidity
45969;DHT22;31676;40.444;-3.668;2022-09-09T00:06:43;27.10;69.20
45969;DHT22;31676;40.444;-3.668;2022-09-09T00:09:12;27.10;69.20
45969;DHT22;31676;40.444;-3.668;2022-09-09T00:14:30;27.10;69.20
45969;DHT22;31676;40.444;-3.668;2022-09-09T00:17:00;27.10;69.20
45969;DHT22;31676;40.444;-3.668;2022-09-09T00:19:29;27.10;69.20
45969;DHT22;31676;40.444;-3.668;2022-09-09T00:24:26;27.00;69.10
45969;DHT22;31676;40.444;-3.668;2022-09-09T00:26:54;27.10;69.20
45969;DHT22;31676;40.444;-3.668;2022-09-09T00:31:57;27.00;69.20
45969;DHT22;31676;40.444;-3.668;2022-09-09T00:34:28;27.10;69.20
45969;DHT22;31676;40.444;-3.668;2022-09-09T00:36:54;27.00;69.20
45969;DHT22;31676;40.444;-3.668;2022-09-09T00:44:35;27.00;69.20
45969;DHT22;31676;40.444;-3.668;2022-09-09T00:55:15;27.00;69.20
45969;DHT22;31676;40.444;-3.668;2022-09-09T00:57:44;27.00;69.20
45969;DHT22;31676;40.444;-3.668;2022-09-09T01:00:19;27.00;69.20
45969;DHT22;31676;40.444;-3.668;2022-09-09T01:07:58;27.00;69.20
45969;DHT22;31676;40.444;-3.668;2022-09-09T01:10:29;27.00;69.20
45969;DHT22;31676;40.444;-3.668;2022-09-09T01:12:58;27.00;69.20
45969;DHT22;31676;40.444;-3.668;2022-09-09T01:15:28;27.00;69.30
45969;DHT22;31676;40.444;-3.668;2022-09-09T01:18:04;27.00;69.20
45969;DHT22;31676;40.444;-3.668;2022-09-09T01:20:39;27.00;69.30
45969;DHT22;31676;40.444;-3.668;2022-09-09T01:28:21;27.00;69.30
45969;DHT22;31676;40.444;-3.668;2022-09-09T01:30:47;27.00;69.30
45969;DHT22;31676;40.444;-3.668;2022-09-09T01:33:14;27.00;69.30
45969;DHT22;31676;40.444;-3.668;2022-09-09T01:35:46;27.00;69.30
45969;DHT22;31676;40.444;-3.668;2022-09-09T01:38:14;27.00;69.30
45969;DHT22;31676;40.444;-3.668;2022-09-09T01:40:40;27.00;69.30
45969;DHT22;31676;40.444;-3.668;2022-09-09T01:43:05;27.00;69.30
45969;DHT22;31676;40.444;-3.668;2022-09-09T01:45:32;27.10;69.30
45969;DHT22;31676;40.444;-3.668;2022-09-09T01:47:59;27.00;69.30
45969;DHT22;31676;40.444;-3.668;2022-09-09T01:50:25;27.00;69.30
45969;DHT22;31676;40.444;-3.668;2022-09-09T01:52:53;27.00;69.30
45969;DHT22;31676;40.444;-3.668;2022-09-09T01:55:26;27.00;69.30
45969;DHT22;31676;40.444;-3.668;2022-09-09T01:58:07;27.00;70.00
45969;DHT22;31676;40.444;-3.668;2022-09-09T02:00:36;27.00;69.30
45969;DHT22;31676;40.444;-3.668;2022-09-09T02:13:29;27.00;69.40
45969;DHT22;31676;40.444;-3.668;2022-09-09T02:21:03;26.90;69.30
45969;DHT22;31676;40.444;-3.668;2022-09-09T02:23:29;27.00;69.30
45969;DHT22;31676;40.444;-3.668;2022-09-09T02:25:55;27.00;69.30
45969;DHT22;31676;40.444;-3.668;2022-09-09T02:28:23;26.90;69.30
45969;DHT22;31676;40.444;-3.668;2022-09-09T02:30:50;26.90;69.30
45969;DHT22;31676;40.444;-3.668;2022-09-09T02:33:25;26.90;69.30
45969;DHT22;31676;40.444;-3.668;2022-09-09T02:35:52;26.90;69.30
45969;DHT22;31676;40.444;-3.668;2022-09-09T02:38:18;26.90;69.30
45969;DHT22;31676;40.444;-3.668;2022-09-09T02:40:45;26.90;69.30
45969;DHT22;31676;40.444;-3.668;2022-09-09T02:43:11;26.90;69.30
45969;DHT22;31676;40.444;-3.668;2022-09-09T02:45:41;26.90;69.30
45969;DHT22;31676;40.444;-3.668;2022-09-09T02:53:39;26.90;69.30
45969;DHT22;31676;40.444;-3.668;2022-09-09T02:56:18;26.90;69.40
45969;DHT22;31676;40.444;-3.668;2022-09-09T02:58:48;26.90;69.40
45969;DHT22;31676;40.444;-3.668;2022-09-09T03:01:26;26.90;69.40
45969;DHT22;31676;40.444;-3.668;2022-09-09T03:03:52;26.90;69.40
45969;DHT22;31676;40.444;-3.668;2022-09-09T03:06:20;26.90;69.40
45969;DHT22;31676;40.444;-3.668;2022-09-09T03:08:47;26.90;69.30
45969;DHT22;31676;40.444;-3.668;2022-09-09T03:11:16;26.90;69.40
45969;DHT22;31676;40.444;-3.668;2022-09-09T03:13:42;26.90;69.40
45969;DHT22;31676;40.444;-3.668;2022-09-09T03:16:07;26.90;69.40
45969;DHT22;31676;40.444;-3.668;2022-09-09T03:18:33;26.90;69.30
45969;DHT22;31676;40.444;-3.668;2022-09-09T03:20:59;26.90;69.40
45969;DHT22;31676;40.444;-3.668;2022-09-09T03:23:25;26.90;69.40
45969;DHT22;31676;40.444;-3.668;2022-09-09T03:25:51;26.90;69.40
45969;DHT22;31676;40.444;-3.668;2022-09-09T03:28:17;26.80;69.30
45969;DHT22;31676;40.444;-3.668;2022-09-09T03:30:43;26.90;69.40
45969;DHT22;31676;40.444;-3.668;2022-09-09T03:33:09;26.90;69.40
45969;DHT22;31676;40.444;-3.668;2022-09-09T03:35:35;26.90;69.40
45969;DHT22;31676;40.444;-3.668;2022-09-09T03:38:01;26.90;69.40
45969;DHT22;31676;40.444;-3.668;2022-09-09T03:40:26;26.80;69.30
45969;DHT22;31676;40.444;-3.668;2022-09-09T03:42:52;26.80;69.30
45969;DHT22;31676;40.444;-3.668;2022-09-09T03:45:18;26.90;69.40
45969;DHT22;31676;40.444;-3.668;2022-09-09T03:47:44;26.80;69.40
45969;DHT22;31676;40.444;-3.668;2022-09-09T03:50:09;26.80;69.30
45969;DHT22;31676;40.444;-3.668;2022-09-09T03:52:36;26.80;69.30
45969;DHT22;31676;40.444;-3.668;2022-09-09T03:55:03;26.80;69.30
45969;DHT22;31676;40.444;-3.668;2022-09-09T03:57:29;26.80;69.30
45969;DHT22;31676;40.444;-3.668;2022-09-09T03:59:55;26.80;69.30
45969;DHT22;31676;40.444;-3.668;2022-09-09T04:02:21;26.80;69.30
45969;DHT22;31676;40.444;-3.668;2022-09-09T04:04:46;26.80;69.30
45969;DHT22;31676;40.444;-3.668;2022-09-09T04:07:12;26.80;69.30
45969;DHT22;31676;40.444;-3.668;2022-09-09T04:09:38;26.80;69.40
45969;DHT22;31676;40.444;-3.668;2022-09-09T04:12:04;26.80;69.40
45969;DHT22;31676;40.444;-3.668;2022-09-09T04:14:30;26.80;69.40
45969;DHT22;31676;40.444;-3.668;2022-09-09T04:16:56;26.80;69.40
45969;DHT22;31676;40.444;-3.668;2022-09-09T04:19:24;26.80;70.00
45969;DHT22;31676;40.444;-3.668;2022-09-09T04:21:50;26.80;69.40
45969;DHT22;31676;40.444;-3.668;2022-09-09T04:24:17;26.80;69.40
45969;DHT22;31676;40.444;-3.668;2022-09-09T04:26:42;26.80;69.40
45969;DHT22;31676;40.444;-3.668;2022-09-09T04:29:08;26.80;69.40
45969;DHT22;31676;40.444;-3.668;2022-09-09T04:31:34;26.80;69.40
45969;DHT22;31676;40.444;-3.668;2022-09-09T04:34:00;26.80;69.40
45969;DHT22;31676;40.444;-3.668;2022-09-09T04:36:31;26.80;69.40
45969;DHT22;31676;40.444;-3.668;2022-09-09T04:38:57;26.80;69.40
45969;DHT22;31676;40.444;-3.668;2022-09-09T04:41:23;26.80;69.40
45969;DHT22;31676;40.444;-3.668;2022-09-09T04:43:49;26.80;69.50
45969;DHT22;31676;40.444;-3.668;2022-09-09T04:46:15;26.80;69.40
45969;DHT22;31676;40.444;-3.668;2022-09-09T04:48:42;26.80;69.50
45969;DHT22;31676;40.444;-3.668;2022-09-09T04:51:08;26.70;69.40
45969;DHT22;31676;40.444;-3.668;2022-09-09T04:53:35;26.80;69.50
45969;DHT22;31676;40.444;-3.668;2022-09-09T04:56:05;26.70;69.30
45969;DHT22;31676;40.444;-3.668;2022-09-09T04:58:32;26.70;69.40
45969;DHT22;31676;40.444;-3.668;2022-09-09T05:03:29;26.70;69.40
45969;DHT22;31676;40.444;-3.668;2022-09-09T05:06:01;26.70;69.40
45969;DHT22;31676;40.444;-3.668;2022-09-09T05:08:29;26.70;69.40
45969;DHT22;31676;40.444;-3.668;2022-09-09T05:10:54;26.70;69.40
45969;DHT22;31676;40.444;-3.668;2022-09-09T05:13:20;26.70;69.40
45969;DHT22;31676;40.444;-3.668;2022-09-09T05:15:51;26.70;69.40
45969;DHT22;31676;40.444;-3.668;2022-09-09T05:18:17;26.70;69.40
45969;DHT22;31676;40.444;-3.668;2022-09-09T05:20:43;26.70;69.40
45969;DHT22;31676;40.444;-3.668;2022-09-09T05:23:08;26.70;69.40
45969;DHT22;31676;40.444;-3.668;2022-09-09T05:25:36;26.70;69.40
45969;DHT22;31676;40.444;-3.668;2022-09-09T05:28:02;26.70;69.40
45969;DHT22;31676;40.444;-3.668;2022-09-09T05:30:27;26.70;69.40
45969;DHT22;31676;40.444;-3.668;2022-09-09T05:32:55;26.70;69.40
45969;DHT22;31676;40.444;-3.668;2022-09-09T05:35:21;26.70;69.40
45969;DHT22;31676;40.444;-3.668;2022-09-09T05:37:46;26.70;69.40
45969;DHT22;31676;40.444;-3.668;2022-09-09T05:40:13;26.70;69.40
45969;DHT22;31676;40.444;-3.668;2022-09-09T05:42:38;26.70;69.40
45969;DHT22;31676;40.444;-3.668;2022-09-09T05:45:05;26.70;69.40
45969;DHT22;31676;40.444;-3.668;2022-09-09T05:47:30;26.70;69.40
45969;DHT22;31676;40.444;-3.668;2022-09-09T05:49:56;26.70;69.40
45969;DHT22;31676;40.444;-3.668;2022-09-09T05:52:22;26.70;69.40
45969;DHT22;31676;40.444;-3.668;2022-09-09T05:54:49;26.70;70.10
45969;DHT22;31676;40.444;-3.668;2022-09-09T05:57:14;26.70;69.40
45969;DHT22;31676;40.444;-3.668;2022-09-09T05:59:40;26.70;69.40
45969;DHT22;31676;40.444;-3.668;2022-09-09T06:02:07;26.70;69.40
45969;DHT22;31676;40.444;-3.668;2022-09-09T06:04:33;26.70;69.40
45969;DHT22;31676;40.444;-3.668;2022-09-09T06:06:59;26.70;69.40
45969;DHT22;31676;40.444;-3.668;2022-09-09T06:09:24;26.70;69.50
45969;DHT22;31676;40.444;-3.668;2022-09-09T06:11:50;26.70;69.40
45969;DHT22;31676;40.444;-3.668;2022-09-09T06:14:16;26.70;69.40
45969;DHT22;31676;40.444;-3.668;2022-09-09T06:16:43;26.70;69.40
45969;DHT22;31676;40.444;-3.668;2022-09-09T06:19:09;26.70;69.40
45969;DHT22;31676;40.444;-3.668;2022-09-09T06:21:35;26.70;69.40
45969;DHT22;31676;40.444;-3.668;2022-09-09T06:24:05;26.60;69.40
45969;DHT22;31676;40.444;-3.668;2022-09-09T06:26:33;26.70;69.40
45969;DHT22;31676;40.444;-3.668;2022-09-09T06:28:59;26.70;69.50
45969;DHT22;31676;40.444;-3.668;2022-09-09T06:31:26;26.60;69.40
45969;DHT22;31676;40.444;-3.668;2022-09-09T06:33:55;26.60;69.40
45969;DHT22;31676;40.444;-3.668;2022-09-09T06:36:25;26.70;69.50
45969;DHT22;31676;40.444;-3.668;2022-09-09T06:38:51;26.60;69.40
45969;DHT22;31676;40.444;-3.668;2022-09-09T06:41:18;26.70;69.50
45969;DHT22;31676;40.444;-3.668;2022-09-09T06:43:44;26.70;69.50
45969;DHT22;31676;40.444;-3.668;2022-09-09T06:46:11;26.70;69.50
45969;DHT22;31676;40.444;-3.668;2022-09-09T06:48:38;26.60;69.40
45969;DHT22;31676;40.444;-3.668;2022-09-09T06:53:32;26.60;69.40
45969;DHT22;31676;40.444;-3.668;2022-09-09T06:56:02;26.60;69.40
45969;DHT22;31676;40.444;-3.668;2022-09-09T06:58:28;26.60;69.40
45969;DHT22;31676;40.444;-3.668;2022-09-09T07:01:13;26.60;69.40
45969;DHT22;31676;40.444;-3.668;2022-09-09T07:03:39;26.60;69.50
45969;DHT22;31676;40.444;-3.668;2022-09-09T07:06:05;26.60;69.50
45969;DHT22;31676;40.444;-3.668;2022-09-09T07:08:31;26.60;69.50
45969;DHT22;31676;40.444;-3.668;2022-09-09T07:11:03;26.60;69.40
45969;DHT22;31676;40.444;-3.668;2022-09-09T07:13:30;26.60;69.50
45969;DHT22;31676;40.444;-3.668;2022-09-09T07:16:06;26.60;69.50
45969;DHT22;31676;40.444;-3.668;2022-09-09T07:18:32;26.60;69.50
45969;DHT22;31676;40.444;-3.668;2022-09-09T07:20:58;26.60;69.50
45969;DHT22;31676;40.444;-3.668;2022-09-09T07:23:24;26.60;69.50
45969;DHT22;31676;40.444;-3.668;2022-09-09T07:25:50;26.60;69.50
45969;DHT22;31676;40.444;-3.668;2022-09-09T07:28:17;26.60;69.50
45969;DHT22;31676;40.444;-3.668;2022-09-09T07:30:42;26.60;69.50
45969;DHT22;31676;40.444;-3.668;2022-09-09T07:33:09;26.50;69.40
45969;DHT22;31676;40.444;-3.668;2022-09-09T07:35:37;26.60;69.50
45969;DHT22;31676;40.444;-3.668;2022-09-09T07:38:03;26.60;69.50
45969;DHT22;31676;40.444;-3.668;2022-09-09T07:40:33;26.60;69.50
45969;DHT22;31676;40.444;-3.668;2022-09-09T07:42:59;26.50;69.50
45969;DHT22;31676;40.444;-3.668;2022-09-09T07:45:25;26.60;69.50
45969;DHT22;31676;40.444;-3.668;2022-09-09T07:47:53;26.50;69.40
45969;DHT22;31676;40.444;-3.668;2022-09-09T07:50:19;26.60;69.50
45969;DHT22;31676;40.444;-3.668;2022-09-09T07:52:45;26.50;69.50
45969;DHT22;31676;40.444;-3.668;2022-09-09T07:55:10;26.60;69.50
45969;DHT22;31676;40.444;-3.668;2022-09-09T07:57:36;26.50;69.40
45969;DHT22;31676;40.444;-3.668;2022-09-09T08:00:03;26.50;69.40
45969;DHT22;31676;40.444;-3.668;2022-09-09T08:02:29;26.50;69.50
45969;DHT22;31676;40.444;-3.668;2022-09-09T08:04:55;26.50;69.40
45969;DHT22;31676;40.444;-3.668;2022-09-09T08:07:21;26.50;69.50
45969;DHT22;31676;40.444;-3.668;2022-09-09T08:09:47;26.50;69.50
45969;DHT22;31676;40.444;-3.668;2022-09-09T08:12:14;26.50;69.50
45969;DHT22;31676;40.444;-3.668;2022-09-09T08:14:40;26.50;69.50
45969;DHT22;31676;40.444;-3.668;2022-09-09T08:17:06;26.50;69.40
45969;DHT22;31676;40.444;-3.668;2022-09-09T08:19:31;26.50;69.50
45969;DHT22;31676;40.444;-3.668;2022-09-09T08:22:01;26.50;69.50
45969;DHT22;31676;40.444;-3.668;2022-09-09T08:24:27;26.50;70.10
45969;DHT22;31676;40.444;-3.668;2022-09-09T08:26:53;26.50;69.50
45969;DHT22;31676;40.444;-3.668;2022-09-09T08:29:19;26.50;69.50
45969;DHT22;31676;40.444;-3.668;2022-09-09T08:31:46;26.50;69.50
45969;DHT22;31676;40.444;-3.668;2022-09-09T08:34:12;26.50;69.50
45969;DHT22;31676;40.444;-3.668;2022-09-09T08:36:39;26.50;69.50
45969;DHT22;31676;40.444;-3.668;2022-09-09T08:39:06;26.50;69.50
45969;DHT22;31676;40.444;-3.668;2022-09-09T08:41:51;26.50;69.50
45969;DHT22;31676;40.444;-3.668;2022-09-09T08:52:25;26.50;69.50
45969;DHT22;31676;40.444;-3.668;2022-09-09T08:54:52;26.50;69.50
45969;DHT22;31676;40.444;-3.668;2022-09-09T08:57:25;26.50;69.50
45969;DHT22;31676;40.444;-3.668;2022-09-09T08:59:52;26.50;69.50
45969;DHT22;31676;40.444;-3.668;2022-09-09T09:02:34;26.50;69.50
45969;DHT22;31676;40.444;-3.668;2022-09-09T09:05:13;26.50;69.50
45969;DHT22;31676;40.444;-3.668;2022-09-09T09:12:39;26.50;69.50
45969;DHT22;31676;40.444;-3.668;2022-09-09T09:15:19;26.50;69.50
45969;DHT22;31676;40.444;-3.668;2022-09-09T09:17:46;26.50;69.50
45969;DHT22;31676;40.444;-3.668;2022-09-09T09:20:12;26.50;69.40
45969;DHT22;31676;40.444;-3.668;2022-09-09T09:22:58;26.50;69.50
45969;DHT22;31676;40.444;-3.668;2022-09-09T09:25:35;26.50;69.50
45969;DHT22;31676;40.444;-3.668;2022-09-09T09:30:34;26.50;69.50
45969;DHT22;31676;40.444;-3.668;2022-09-09T09:35:45;26.50;69.50
45969;DHT22;31676;40.444;-3.668;2022-09-09T09:38:14;26.50;69.40
45969;DHT22;31676;40.444;-3.668;2022-09-09T09:40:51;26.50;69.50
45969;DHT22;31676;40.444;-3.668;2022-09-09T09:43:24;26.50;69.50
45969;DHT22;31676;40.444;-3.668;2022-09-09T09:45:50;26.50;69.50
45969;DHT22;31676;40.444;-3.668;2022-09-09T09:48:16;26.50;69.50
45969;DHT22;31676;40.444;-3.668;2022-09-09T09:53:29;26.50;69.50
45969;DHT22;31676;40.444;-3.668;2022-09-09T09:56:00;26.50;69.50
45969;DHT22;31676;40.444;-3.668;2022-09-09T09:58:27;26.50;69.50
45969;DHT22;31676;40.444;-3.668;2022-09-09T10:00:56;26.50;69.50
45969;DHT22;31676;40.444;-3.668;2022-09-09T10:05:52;26.50;69.50
45969;DHT22;31676;40.444;-3.668;2022-09-09T10:08:18;26.60;69.50
45969;DHT22;31676;40.444;-3.668;2022-09-09T10:13:30;26.50;69.50
45969;DHT22;31676;40.444;-3.668;2022-09-09T10:16:08;26.50;69.50
45969;DHT22;31676;40.444;-3.668;2022-09-09T10:18:47;26.50;69.50
45969;DHT22;31676;40.444;-3.668;2022-09-09T10:26:46;26.60;69.50
45969;DHT22;31676;40.444;-3.668;2022-09-09T10:32:18;26.50;69.40
45969;DHT22;31676;40.444;-3.668;2022-09-09T10:34:58;26.60;69.50
45969;DHT22;31676;40.444;-3.668;2022-09-09T10:38:03;26.50;69.40
45969;DHT22;31676;40.444;-3.668;2022-09-09T10:42:45;26.60;69.50
45969;DHT22;31676;40.444;-3.668;2022-09-09T10:45:18;26.60;69.40
45969;DHT22;31676;40.444;-3.668;2022-09-09T10:47:54;26.60;69.50
45969;DHT22;31676;40.444;-3.668;2022-09-09T10:53:09;26.60;69.50
45969;DHT22;31676;40.444;-3.668;2022-09-09T10:55:40;26.60;69.50
45969;DHT22;31676;40.444;-3.668;2022-09-09T10:58:09;26.60;69.40
45969;DHT22;31676;40.444;-3.668;2022-09-09T11:03:02;26.60;69.40
45969;DHT22;31676;40.444;-3.668;2022-09-09T11:05:50;26.60;69.40
45969;DHT22;31676;40.444;-3.668;2022-09-09T11:13:10;26.70;69.40
45969;DHT22;31676;40.444;-3.668;2022-09-09T11:15:50;26.70;69.40
45969;DHT22;31676;40.444;-3.668;2022-09-09T11:18:21;26.70;69.40
45969;DHT22;31676;40.444;-3.668;2022-09-09T11:20:49;26.70;69.40
45969;DHT22;31676;40.444;-3.668;2022-09-09T11:23:17;26.70;69.40
45969;DHT22;31676;40.444;-3.668;2022-09-09T11:25:49;26.70;69.40
45969;DHT22;31676;40.444;-3.668;2022-09-09T11:38:47;26.70;69.40
45969;DHT22;31676;40.444;-3.668;2022-09-09T11:41:13;26.70;69.40
45969;DHT22;31676;40.444;-3.668;2022-09-09T11:43:41;26.70;69.40
45969;DHT22;31676;40.444;-3.668;2022-09-09T11:46:07;26.70;69.30
45969;DHT22;31676;40.444;-3.668;2022-09-09T11:48:34;26.70;69.40
45969;DHT22;31676;40.444;-3.668;2022-09-09T11:51:24;26.70;69.40
45969;DHT22;31676;40.444;-3.668;2022-09-09T11:53:55;26.70;69.40
45969;DHT22;31676;40.444;-3.668;2022-09-09T11:56:28;26.70;69.40
45969;DHT22;31676;40.444;-3.668;2022-09-09T12:01:27;26.70;69.40
45969;DHT22;31676;40.444;-3.668;2022-09-09T12:08:53;26.70;69.30
45969;DHT22;31676;40.444;-3.668;2022-09-09T12:11:27;26.80;69.40
45969;DHT22;31676;40.444;-3.668;2022-09-09T12:13:54;26.80;69.40
45969;DHT22;31676;40.444;-3.668;2022-09-09T12:16:30;26.80;69.40
45969;DHT22;31676;40.444;-3.668;2022-09-09T12:19:05;26.80;69.40
45969;DHT22;31676;40.444;-3.668;2022-09-09T12:21:34;26.80;69.40
45969;DHT22;31676;40.444;-3.668;2022-09-09T12:24:05;26.80;69.40
45969;DHT22;31676;40.444;-3.668;2022-09-09T12:26:39;26.80;69.40
45969;DHT22;31676;40.444;-3.668;2022-09-09T12:31:46;26.80;69.30
45969;DHT22;31676;40.444;-3.668;2022-09-09T12:36:59;26.80;69.30
45969;DHT22;31676;40.444;-3.668;2022-09-09T12:41:53;26.80;69.30
45969;DHT22;31676;40.444;-3.668;2022-09-09T12:44:26;26.80;69.30
45969;DHT22;31676;40.444;-3.668;2022-09-09T12:46:53;26.80;69.30
45969;DHT22;31676;40.444;-3.668;2022-09-09T12:49:27;26.80;69.30
45969;DHT22;31676;40.444;-3.668;2022-09-09T12:51:54;26.80;69.30
45969;DHT22;31676;40.444;-3.668;2022-09-09T12:54:20;26.90;70.00
45969;DHT22;31676;40.444;-3.668;2022-09-09T12:56:46;26.80;69.30
45969;DHT22;31676;40.444;-3.668;2022-09-09T12:59:26;26.90;69.40
45969;DHT22;31676;40.444;-3.668;2022-09-09T13:01:58;26.90;69.40
45969;DHT22;31676;40.444;-3.668;2022-09-09T13:04:24;26.90;69.30
45969;DHT22;31676;40.444;-3.668;2022-09-09T13:06:50;26.90;69.30
45969;DHT22;31676;40.444;-3.668;2022-09-09T13:09:17;26.90;69.30
45969;DHT22;31676;40.444;-3.668;2022-09-09T13:11:45;26.90;69.30
45969;DHT22;31676;40.444;-3.668;2022-09-09T13:14:15;26.90;69.30
45969;DHT22;31676;40.444;-3.668;2022-09-09T13:16:55;26.90;69.30
45969;DHT22;31676;40.444;-3.668;2022-09-09T13:19:22;26.90;69.30
45969;DHT22;31676;40.444;-3.668;2022-09-09T13:21:47;26.90;69.20
45969;DHT22;31676;40.444;-3.668;2022-09-09T13:26:58;27.00;69.30
45969;DHT22;31676;40.444;-3.668;2022-09-09T13:29:25;26.90;69.20
45969;DHT22;31676;40.444;-3.668;2022-09-09T13:31:51;27.00;69.30
45969;DHT22;31676;40.444;-3.668;2022-09-09T13:34:28;27.00;69.30
45969;DHT22;31676;40.444;-3.668;2022-09-09T13:36:59;27.00;69.30
45969;DHT22;31676;40.444;-3.668;2022-09-09T13:39:27;27.00;69.90
45969;DHT22;31676;40.444;-3.668;2022-09-09T13:41:53;27.00;69.20
45969;DHT22;31676;40.444;-3.668;2022-09-09T13:44:26;27.00;69.20
45969;DHT22;31676;40.444;-3.668;2022-09-09T13:47:03;27.00;69.20
45969;DHT22;31676;40.444;-3.668;2022-09-09T13:49:30;27.00;69.30
45969;DHT22;31676;40.444;-3.668;2022-09-09T13:54:32;27.00;69.30
45969;DHT22;31676;40.444;-3.668;2022-09-09T13:56:58;27.00;69.20
45969;DHT22;31676;40.444;-3.668;2022-09-09T13:59:24;27.00;69.20
45969;DHT22;31676;40.444;-3.668;2022-09-09T14:01:51;27.00;69.20
45969;DHT22;31676;40.444;-3.668;2022-09-09T14:04:17;27.00;69.20
45969;DHT22;31676;40.444;-3.668;2022-09-09T14:06:43;27.00;69.20
45969;DHT22;31676;40.444;-3.668;2022-09-09T14:09:13;27.00;69.20
45969;DHT22;31676;40.444;-3.668;2022-09-09T14:11:40;27.00;69.20
45969;DHT22;31676;40.444;-3.668;2022-09-09T14:14:05;27.00;69.20
45969;DHT22;31676;40.444;-3.668;2022-09-09T14:16:31;27.00;69.90
45969;DHT22;31676;40.444;-3.668;2022-09-09T14:19:00;27.00;69.20
45969;DHT22;31676;40.444;-3.668;2022-09-09T14:21:27;27.00;69.30
45969;DHT22;31676;40.444;-3.668;2022-09-09T14:23:52;27.00;69.20
45969;DHT22;31676;40.444;-3.668;2022-09-09T14:26:21;27.00;69.20
45969;DHT22;31676;40.444;-3.668;2022-09-09T14:28:47;27.00;69.20
45969;DHT22;31676;40.444;-3.668;2022-09-09T14:31:13;27.00;69.20
45969;DHT22;31676;40.444;-3.668;2022-09-09T14:33:39;27.00;69.30
45969;DHT22;31676;40.444;-3.668;2022-09-09T14:36:05;27.00;69.20
45969;DHT22;31676;40.444;-3.668;2022-09-09T14:38:32;27.00;69.20
45969;DHT22;31676;40.444;-3.668;2022-09-09T14:40:59;27.00;69.30
45969;DHT22;31676;40.444;-3.668;2022-09-09T14:43:25;27.00;69.20
45969;DHT22;31676;40.444;-3.668;2022-09-09T14:45:51;27.00;69.20
45969;DHT22;31676;40.444;-3.668;2022-09-09T14:48:17;27.00;69.30
45969;DHT22;31676;40.444;-3.668;2022-09-09T14:50:43;27.00;69.30
45969;DHT22;31676;40.444;-3.668;2022-09-09T14:53:08;27.00;69.30
45969;DHT22;31676;40.444;-3.668;2022-09-09T14:55:35;27.00;69.20
45969;DHT22;31676;40.444;-3.668;2022-09-09T14:58:01;27.00;69.20
45969;DHT22;31676;40.444;-3.668;2022-09-09T15:00:27;27.00;69.30
45969;DHT22;31676;40.444;-3.668;2022-09-09T15:02:53;27.00;69.20
45969;DHT22;31676;40.444;-3.668;2022-09-09T15:05:19;27.00;69.30
45969;DHT22;31676;40.444;-3.668;2022-09-09T15:07:45;27.00;69.30
45969;DHT22;31676;40.444;-3.668;2022-09-09T15:10:10;27.00;69.20
45969;DHT22;31676;40.444;-3.668;2022-09-09T15:12:36;27.00;69.30
45969;DHT22;31676;40.444;-3.668;2022-09-09T15:15:04;27.00;69.30
45969;DHT22;31676;40.444;-3.668;2022-09-09T15:17:30;27.00;69.30
45969;DHT22;31676;40.444;-3.668;2022-09-09T15:19:55;27.00;69.20
45969;DHT22;31676;40.444;-3.668;2022-09-09T15:22:21;27.00;69.20
45969;DHT22;31676;40.444;-3.668;2022-09-09T15:24:47;27.00;69.30
45969;DHT22;31676;40.444;-3.668;2022-09-09T15:27:13;27.00;69.30
45969;DHT22;31676;40.444;-3.668;2022-09-09T15:29:40;27.00;69.30
45969;DHT22;31676;40.444;-3.668;2022-09-09T15:32:06;27.00;69.30
45969;DHT22;31676;40.444;-3.668;2022-09-09T15:34:31;27.00;69.30
45969;DHT22;31676;40.444;-3.668;2022-09-09T15:36:57;27.00;69.30
45969;DHT22;31676;40.444;-3.668;2022-09-09T15:39:25;27.00;69.30
45969;DHT22;31676;40.444;-3.668;2022-09-09T15:41:51;27.00;69.30
45969;DHT22;31676;40.444;-3.668;2022-09-09T15:44:17;27.00;69.30
45969;DHT22;31676;40.444;-3.668;2022-09-09T15:46:51;27.00;69.30
45969;DHT22;31676;40.444;-3.668;2022-09-09T15:49:25;27.00;69.30
45969;DHT22;31676;40.444;-3.668;2022-09-09T15:51:52;27.10;69.40
45969;DHT22;31676;40.444;-3.668;2022-09-09T15:54:19;27.00;69.30
45969;DHT22;31676;40.444;-3.668;2022-09-09T15:56:46;27.10;69.40
45969;DHT22;31676;40.444;-3.668;2022-09-09T15:59:13;27.00;69.30
45969;DHT22;31676;40.444;-3.668;2022-09-09T16:01:40;27.10;69.40
45969;DHT22;31676;40.444;-3.668;2022-09-09T16:04:07;27.10;69.40
45969;DHT22;31676;40.444;-3.668;2022-09-09T16:06:34;27.00;69.30
45969;DHT22;31676;40.444;-3.668;2022-09-09T16:09:00;27.10;69.40
45969;DHT22;31676;40.444;-3.668;2022-09-09T16:11:29;27.10;69.40
45969;DHT22;31676;40.444;-3.668;2022-09-09T16:13:56;27.10;69.40
45969;DHT22;31676;40.444;-3.668;2022-09-09T16:16:23;27.10;69.40
45969;DHT22;31676;40.444;-3.668;2022-09-09T16:18:50;27.10;69.40
45969;DHT22;31676;40.444;-3.668;2022-09-09T16:21:24;27.10;69.40
45969;DHT22;31676;40.444;-3.668;2022-09-09T16:23:52;27.10;69.40
45969;DHT22;31676;40.444;-3.668;2022-09-09T16:26:21;27.10;69.40
45969;DHT22;31676;40.444;-3.668;2022-09-09T16:28:47;27.10;69.40
45969;DHT22;31676;40.444;-3.668;2022-09-09T16:31:14;27.10;69.40
45969;DHT22;31676;40.444;-3.668;2022-09-09T16:33:40;27.10;69.40
45969;DHT22;31676;40.444;-3.668;2022-09-09T16:36:07;27.10;69.40
45969;DHT22;31676;40.444;-3.668;2022-09-09T16:38:33;27.10;69.40
45969;DHT22;31676;40.444;-3.668;2022-09-09T16:41:01;27.10;69.40
45969;DHT22;31676;40.444;-3.668;2022-09-09T16:43:27;27.10;69.40
45969;DHT22;31676;40.444;-3.668;2022-09-09T16:45:52;27.10;69.40
45969;DHT22;31676;40.444;-3.668;2022-09-09T16:48:18;27.10;69.40
45969;DHT22;31676;40.444;-3.668;2022-09-09T16:50:44;27.10;69.40
45969;DHT22;31676;40.444;-3.668;2022-09-09T16:53:11;27.10;69.40
45969;DHT22;31676;40.444;-3.668;2022-09-09T16:55:39;27.10;69.40
45969;DHT22;31676;40.444;-3.668;2022-09-09T16:58:05;27.10;69.40
45969;DHT22;31676;40.444;-3.668;2022-09-09T17:00:31;27.10;69.40
45969;DHT22;31676;40.444;-3.668;2022-09-09T17:02:56;27.10;69.40
45969;DHT22;31676;40.444;-3.668;2022-09-09T17:05:22;27.10;69.30
45969;DHT22;31676;40.444;-3.668;2022-09-09T17:07:48;27.20;69.40
45969;DHT22;31676;40.444;-3.668;2022-09-09T17:10:14;27.10;69.30
45969;DHT22;31676;40.444;-3.668;2022-09-09T17:12:40;27.10;69.40
45969;DHT22;31676;40.444;-3.668;2022-09-09T17:15:06;27.10;69.30
45969;DHT22;31676;40.444;-3.668;2022-09-09T17:17:32;27.20;69.40
45969;DHT22;31676;40.444;-3.668;2022-09-09T17:19:58;27.10;69.40
45969;DHT22;31676;40.444;-3.668;2022-09-09T17:22:23;27.20;69.40
45969;DHT22;31676;40.444;-3.668;2022-09-09T17:24:51;27.20;69.40
45969;DHT22;31676;40.444;-3.668;2022-09-09T17:27:17;27.20;69.40
45969;DHT22;31676;40.444;-3.668;2022-09-09T17:29:45;27.20;69.40
45969;DHT22;31676;40.444;-3.668;2022-09-09T17:32:12;27.10;69.30
45969;DHT22;31676;40.444;-3.668;2022-09-09T17:34:37;27.20;69.40
45969;DHT22;31676;40.444;-3.668;2022-09-09T17:37:04;27.20;69.40
45969;DHT22;31676;40.444;-3.668;2022-09-09T17:39:31;27.20;69.40
45969;DHT22;31676;40.444;-3.668;2022-09-09T17:41:57;27.20;69.40